createdAt,value
2018-08-06T00:01:18.763Z,101520.00
2018-08-06T00:03:50.558Z,101517.48
2018-08-06T00:06:21.769Z,101510.38
2018-08-06T00:08:52.248Z,101506.48
2018-08-06T00:11:25.275Z,101499.05
2018-08-06T00:13:58.173Z,101508.03
2018-08-06T00:16:28.764Z,101500.33
2018-08-06T00:18:59.319Z,101501.55
2018-08-06T00:21:31.603Z,101493.59
2018-08-06T00:24:03.101Z,101492.55
2018-08-06T00:26:34.264Z,101489.46
2018-08-06T00:29:07.831Z,101346.66
2018-08-06T00:31:41.405Z,101486.95
2018-08-06T00:34:12.320Z,101484.32
2018-08-06T00:36:42.659Z,101482.62
2018-08-06T00:39:13.650Z,101479.69
2018-08-06T00:41:44.683Z,101475.25
2018-08-06T00:44:15.532Z,101476.49
2018-08-06T00:46:46.123Z,101463.44
2018-08-06T00:49:17.229Z,101470.41
2018-08-06T00:51:48.161Z,101468.23
2018-08-06T00:54:20.059Z,101469.05
2018-08-06T00:56:50.427Z,101461.72
2018-08-06T00:59:21.558Z,101456.19
2018-08-06T01:01:52.931Z,101459.45
2018-08-06T01:04:23.925Z,101454.31
2018-08-06T01:06:55.325Z,101450.30
2018-08-06T01:09:25.921Z,101452.66
2018-08-06T01:11:56.163Z,101448.88
2018-08-06T01:14:26.990Z,101455.25
2018-08-06T01:16:58.559Z,101446.57
2018-08-06T01:19:29.984Z,101447.53
2018-08-06T01:22:01.531Z,101444.93
2018-08-06T01:24:32.306Z,101437.92
2018-08-06T01:27:03.672Z,101441.95
2018-08-06T01:29:35.860Z,101443.60
2018-08-06T01:32:07.195Z,101436.19
2018-08-06T01:34:37.930Z,101436.91
2018-08-06T01:37:08.236Z,101434.41
2018-08-06T01:39:39.056Z,101433.89
2018-08-06T01:42:09.999Z,101426.35
2018-08-06T01:44:40.850Z,101424.28
2018-08-06T01:47:12.304Z,101424.67
2018-08-06T01:49:43.638Z,101423.59
2018-08-06T01:52:14.254Z,101428.81
2018-08-06T01:54:45.056Z,101417.70
2018-08-06T01:57:15.787Z,101418.22
2018-08-06T01:59:48.887Z,101421.17
2018-08-06T02:02:20.209Z,101409.55
2018-08-06T02:04:51.431Z,101418.68
2018-08-06T02:07:21.810Z,101416.77
2018-08-06T02:09:52.036Z,101410.48
2018-08-06T02:12:22.206Z,101406.83
2018-08-06T02:14:53.344Z,101403.37
2018-08-06T02:17:24.372Z,101397.78
2018-08-06T02:19:55.796Z,101400.66
2018-08-06T02:22:26.196Z,101398.45
2018-08-06T02:24:56.440Z,101401.17
2018-08-06T02:27:26.681Z,101400.52
2018-08-06T02:29:57.345Z,101395.00
2018-08-06T02:32:29.970Z,101398.33
2018-08-06T02:35:00.423Z,101392.28
2018-08-06T02:37:31.744Z,101394.06
2018-08-06T02:40:04.179Z,101390.55
2018-08-06T02:42:35.112Z,101389.49
2018-08-06T02:45:08.146Z,101390.38
2018-08-06T02:47:38.875Z,101391.14
2018-08-06T02:50:10.360Z,101382.19
2018-08-06T02:52:41.720Z,101292.61
2018-08-06T02:55:14.341Z,101373.77
2018-08-06T02:57:44.468Z,101380.15
2018-08-06T03:00:17.977Z,101373.88
2018-08-06T03:02:48.684Z,101375.77
2018-08-06T03:05:19.926Z,101376.26
2018-08-06T03:07:50.696Z,101380.00
2018-08-06T03:10:21.091Z,101368.29
2018-08-06T03:12:51.982Z,101366.94
2018-08-06T03:15:22.325Z,101362.20
2018-08-06T03:17:52.457Z,101358.13
2018-08-06T03:20:22.860Z,101363.79
2018-08-06T03:22:52.994Z,101361.33
2018-08-06T03:25:23.784Z,101357.12
2018-08-06T03:27:54.200Z,101353.38
2018-08-06T03:30:25.949Z,101352.88
2018-08-06T03:32:56.169Z,101356.09
2018-08-06T03:35:26.687Z,101349.65
2018-08-06T03:37:57.352Z,101349.98
2018-08-06T03:40:28.041Z,101339.39
2018-08-06T03:42:58.729Z,101338.30
2018-08-06T03:45:30.233Z,101342.80
2018-08-06T03:48:00.367Z,101332.39
2018-08-06T03:50:30.885Z,101334.41
2018-08-06T03:53:01.417Z,101337.78
2018-08-06T03:55:31.823Z,101334.85
2018-08-06T03:58:02.610Z,101337.71
2018-08-06T04:00:33.040Z,101339.06
2018-08-06T04:03:04.106Z,101333.20
2018-08-06T04:05:34.680Z,101336.47
2018-08-06T04:08:05.059Z,101336.16
2018-08-06T04:10:35.309Z,101328.80
2018-08-06T04:13:05.521Z,101332.55
2018-08-06T04:15:35.808Z,101332.69
2018-08-06T04:18:06.429Z,101329.11
2018-08-06T04:20:47.893Z,101330.70
2018-08-06T04:23:18.184Z,101342.37
2018-08-06T04:25:48.601Z,101336.14
2018-08-06T04:28:20.204Z,101333.25
2018-08-06T04:30:50.994Z,101334.58
2018-08-06T04:33:21.081Z,101330.35
2018-08-06T04:35:51.846Z,101337.87
2018-08-06T04:38:33.145Z,101333.88
2018-08-06T04:41:03.923Z,101331.11
2018-08-06T04:43:33.997Z,101328.91
2018-08-06T04:46:04.840Z,101330.92
2018-08-06T04:48:35.384Z,101326.02
2018-08-06T04:51:07.543Z,101326.17
2018-08-06T04:53:39.093Z,101319.77
2018-08-06T04:56:09.409Z,101315.63
2018-08-06T04:58:42.667Z,101319.81
2018-08-06T05:01:17.456Z,101321.76
2018-08-06T05:03:55.604Z,101319.80
2018-08-06T05:06:26.265Z,101317.66
2018-08-06T05:08:56.472Z,101324.45
2018-08-06T05:11:27.138Z,101321.87
2018-08-06T05:13:59.529Z,101326.00
2018-08-06T05:16:32.316Z,101256.03
2018-08-06T05:19:02.419Z,101320.88
2018-08-06T05:21:32.858Z,101333.94
2018-08-06T05:24:03.997Z,101322.30
2018-08-06T05:26:35.093Z,101326.98
2018-08-06T05:29:05.556Z,101322.09
2018-08-06T05:31:36.012Z,101329.53
2018-08-06T05:34:07.349Z,101328.44
2018-08-06T05:36:38.004Z,101332.20
2018-08-06T05:39:09.451Z,101338.41
2018-08-06T05:41:39.692Z,101332.11
2018-08-06T05:44:11.394Z,101319.77
2018-08-06T05:46:42.263Z,101316.41
2018-08-06T05:49:12.397Z,101329.89
2018-08-06T05:51:45.030Z,101325.08
2018-08-06T05:54:16.057Z,101321.26
2018-08-06T05:56:58.278Z,101319.37
2018-08-06T05:59:28.347Z,101322.61
2018-08-06T06:01:59.806Z,101321.41
2018-08-06T06:04:31.377Z,101323.81
2018-08-06T06:07:02.638Z,101321.46
2018-08-06T06:09:33.285Z,101317.37
2018-08-06T06:12:03.884Z,101326.08
2018-08-06T06:14:35.275Z,101323.08
2018-08-06T06:17:08.219Z,101326.35
2018-08-06T06:19:44.106Z,101335.02
2018-08-06T06:22:15.173Z,101333.13
2018-08-06T06:24:49.466Z,101328.02
2018-08-06T06:27:29.872Z,101324.16
2018-08-06T06:30:00.351Z,101327.35
2018-08-06T06:32:33.578Z,101322.93
2018-08-06T06:35:05.630Z,101330.02
2018-08-06T06:37:36.624Z,101328.46
2018-08-06T06:40:18.072Z,101326.01
2018-08-06T06:42:49.072Z,101323.01
2018-08-06T06:45:20.371Z,101324.87
2018-08-06T06:47:51.244Z,101322.73
2018-08-06T06:50:21.753Z,101317.38
2018-08-06T06:55:43.635Z,101315.48
2018-08-06T06:58:16.223Z,101314.41
2018-08-06T07:00:51.638Z,101308.00
2018-08-06T07:03:22.865Z,101313.88
2018-08-06T07:05:53.789Z,101318.81
2018-08-06T07:08:26.345Z,101319.01
2018-08-06T07:10:57.585Z,101317.31
2018-08-06T07:13:28.804Z,101319.36
2018-08-06T07:16:05.414Z,101319.52
2018-08-06T07:18:37.504Z,101312.91
2018-08-06T07:21:09.822Z,101314.95
2018-08-06T07:23:44.512Z,101309.19
2018-08-06T07:26:15.644Z,101302.73
2018-08-06T07:28:46.487Z,101304.03
2018-08-06T07:31:18.661Z,101299.98
2018-08-06T07:33:51.908Z,101286.40
2018-08-06T07:36:23.005Z,101288.55
2018-08-06T07:38:53.448Z,101281.77
2018-08-06T07:41:25.781Z,101271.75
2018-08-06T07:43:57.140Z,101271.19
2018-08-06T07:46:34.779Z,101135.16
2018-08-06T07:49:09.430Z,101264.16
2018-08-06T07:51:41.159Z,101265.86
2018-08-06T07:54:12.187Z,101253.51
2018-08-06T07:56:45.992Z,101260.47
2018-08-06T07:59:18.402Z,101257.91
2018-08-06T08:01:51.954Z,101261.22
2018-08-06T08:04:34.759Z,101211.59
2018-08-06T08:07:05.942Z,101256.88
2018-08-06T08:09:37.865Z,101242.92
2018-08-06T08:12:08.763Z,101250.47
2018-08-06T08:14:38.998Z,101246.75
2018-08-06T08:17:10.352Z,101244.82
2018-08-06T08:19:42.075Z,101249.68
2018-08-06T08:22:12.443Z,101241.48
2018-08-06T08:24:44.177Z,101249.79
2018-08-06T08:27:16.759Z,101246.38
2018-08-06T08:29:48.313Z,101241.41
2018-08-06T08:32:20.746Z,101227.55
2018-08-06T08:34:52.378Z,101236.95
2018-08-06T08:37:24.417Z,101230.70
2018-08-06T08:39:56.883Z,101241.72
2018-08-06T08:42:39.280Z,101225.48
2018-08-06T08:45:15.530Z,101224.66
2018-08-06T08:47:47.388Z,101211.34
2018-08-06T08:50:19.720Z,101210.50
2018-08-06T08:52:55.653Z,101215.81
2018-08-06T08:55:27.158Z,101207.53
2018-08-06T08:58:00.014Z,101204.23
2018-08-06T09:00:46.277Z,101192.84
2018-08-06T09:03:19.718Z,101196.12
2018-08-06T09:05:51.981Z,101198.00
2018-08-06T09:08:22.420Z,101205.16
2018-08-06T09:10:53.557Z,101200.84
2018-08-06T09:13:25.183Z,101198.88
2018-08-06T09:15:58.076Z,101198.44
2018-08-06T09:18:30.173Z,101190.63
2018-08-06T09:21:00.449Z,101190.94
2018-08-06T09:23:32.467Z,101194.76
2018-08-06T09:26:04.663Z,101184.87
2018-08-06T09:28:36.845Z,101184.83
2018-08-06T09:31:08.218Z,101183.33
2018-08-06T09:33:39.501Z,101181.38
2018-08-06T09:36:09.916Z,101180.16
2018-08-06T09:38:46.209Z,101170.67
2018-08-06T09:41:17.426Z,101174.27
2018-08-06T09:43:50.903Z,101165.67
2018-08-06T09:46:24.505Z,101161.70
2018-08-06T09:48:56.792Z,101155.63
2018-08-06T09:51:29.386Z,101156.94
2018-08-06T09:54:04.857Z,101163.08
2018-08-06T09:56:35.314Z,101156.22
2018-08-06T09:59:10.264Z,101113.14
2018-08-06T10:01:46.465Z,101149.25
2018-08-06T10:04:18.584Z,101145.23
2018-08-06T10:06:54.728Z,101145.55
2018-08-06T10:09:31.349Z,101138.95
2018-08-06T10:12:08.184Z,101121.00
2018-08-06T10:14:42.257Z,101122.42
2018-08-06T10:17:14.378Z,101121.28
2018-08-06T10:19:45.640Z,101126.16
2018-08-06T10:22:19.212Z,101125.00
2018-08-06T10:24:52.185Z,101122.56
2018-08-06T10:27:26.092Z,101115.30
2018-08-06T10:29:56.525Z,101115.16
2018-08-06T10:32:28.939Z,101121.41
2018-08-06T10:35:06.991Z,101111.44
2018-08-06T10:37:52.755Z,101113.49
2018-08-06T10:40:26.656Z,101101.03
2018-08-06T10:42:58.440Z,101108.61
2018-08-06T10:45:31.116Z,101110.00
2018-08-06T10:48:03.594Z,101093.18
2018-08-06T10:50:38.187Z,101084.34
2018-08-06T10:53:09.594Z,101091.11
2018-08-06T10:55:41.794Z,101090.16
2018-08-06T10:58:14.773Z,101086.53
2018-08-06T11:00:45.464Z,101089.37
2018-08-06T11:03:16.486Z,101077.58
2018-08-06T11:05:48.769Z,101082.05
2018-08-06T11:08:22.584Z,101081.37
2018-08-06T11:10:58.803Z,101079.40
2018-08-06T11:13:32.839Z,101077.05
2018-08-06T11:16:11.546Z,101010.75
2018-08-06T11:18:44.130Z,101065.07
2018-08-06T11:21:16.711Z,101058.35
2018-08-06T11:23:48.936Z,101018.71
2018-08-06T11:26:23.269Z,101062.87
2018-08-06T11:28:56.648Z,101054.90
2018-08-06T11:31:35.206Z,101044.84
2018-08-06T11:34:08.614Z,101041.21
2018-08-06T11:36:40.512Z,101040.44
2018-08-06T11:39:13.208Z,101039.02
2018-08-06T11:41:46.468Z,101037.30
2018-08-06T11:44:19.283Z,101024.12
2018-08-06T11:46:50.489Z,101027.30
2018-08-06T11:49:21.471Z,101006.14
2018-08-06T11:51:52.320Z,101024.09
2018-08-06T11:54:24.677Z,100987.45
2018-08-06T11:56:55.066Z,101016.17
2018-08-06T11:59:33.313Z,101017.95
2018-08-06T12:02:22.753Z,101015.81
2018-08-06T12:04:57.014Z,101018.55
2018-08-06T12:07:30.010Z,101016.22
2018-08-06T12:10:11.425Z,101011.78
2018-08-06T12:12:45.030Z,101013.13
2018-08-06T12:15:20.455Z,101006.03
2018-08-06T12:17:56.902Z,101003.91
2018-08-06T12:20:29.061Z,101006.29
2018-08-06T12:23:02.310Z,101005.03
2018-08-06T12:25:34.114Z,101008.62
2018-08-06T12:28:08.543Z,101004.28
2018-08-06T12:30:40.661Z,101000.30
2018-08-06T12:33:12.432Z,101005.30
2018-08-06T12:35:49.358Z,101003.33
2018-08-06T12:38:38.620Z,101002.87
2018-08-06T12:41:33.169Z,100996.36
2018-08-06T12:44:13.277Z,100999.02
2018-08-06T12:46:46.246Z,100988.91
2018-08-06T12:49:20.791Z,100992.27
2018-08-06T12:51:58.599Z,100981.48
2018-08-06T12:54:32.311Z,100982.58
2018-08-06T12:57:04.015Z,100979.47
2018-08-06T12:59:35.477Z,100980.11
2018-08-06T13:02:06.086Z,100978.93
2018-08-06T13:04:38.367Z,100972.09
2018-08-06T13:07:09.643Z,100967.86
2018-08-06T13:09:42.648Z,100960.16
2018-08-06T13:12:19.693Z,100957.25
2018-08-06T13:14:50.883Z,100946.97
2018-08-06T13:17:31.962Z,100949.44
2018-08-06T13:20:03.375Z,100945.66
2018-08-06T13:22:42.609Z,100943.34
2018-08-06T13:25:27.743Z,100949.37
2018-08-06T13:27:59.966Z,100942.31
2018-08-06T13:30:35.040Z,100944.54
2018-08-06T13:33:08.714Z,100940.38
2018-08-06T13:35:43.349Z,100937.61
2018-08-06T13:38:15.044Z,100932.34
2018-08-06T13:40:52.002Z,100926.81
2018-08-06T13:43:28.738Z,100923.02
2018-08-06T13:46:05.879Z,100923.20
2018-08-06T13:48:46.326Z,100915.49
2018-08-06T13:51:24.796Z,100912.78
2018-08-06T13:54:01.958Z,100902.83
2018-08-06T13:56:33.160Z,100911.96
2018-08-06T13:59:06.146Z,100906.41
2018-08-06T14:01:40.406Z,100902.26
2018-08-06T14:04:14.738Z,100902.00
2018-08-06T14:06:45.308Z,100905.36
2018-08-06T14:09:18.837Z,100893.55
2018-08-06T14:14:25.764Z,100880.81
2018-08-06T14:16:59.432Z,100884.02
2018-08-06T14:19:44.493Z,100879.00
2018-08-06T14:24:57.954Z,100882.55
2018-08-06T14:27:32.392Z,100875.16
2018-08-06T14:30:06.815Z,100873.45
2018-08-06T14:32:41.680Z,100872.92
2018-08-06T14:35:15.426Z,100869.44
2018-08-06T14:37:51.483Z,100866.17
2018-08-06T14:40:28.280Z,100865.06
2018-08-06T14:43:02.754Z,100857.20
2018-08-06T14:45:37.571Z,100846.33
2018-08-06T14:48:07.941Z,100853.33
2018-08-06T14:50:42.482Z,100816.23
2018-08-06T14:53:12.736Z,100846.28
2018-08-06T14:55:49.738Z,100845.11
2018-08-06T14:58:22.306Z,100839.12
2018-08-06T15:00:54.703Z,100842.77
2018-08-06T15:03:32.765Z,100837.41
2018-08-06T15:06:04.819Z,100841.61
2018-08-06T15:08:37.266Z,100833.61
2018-08-06T15:11:18.132Z,100831.24
2018-08-06T15:13:52.193Z,100824.93
2018-08-06T15:16:23.836Z,100828.88
2018-08-06T15:18:58.105Z,100831.16
2018-08-06T15:21:33.425Z,100828.43
2018-08-06T15:24:07.697Z,100825.12
2018-08-06T15:26:38.478Z,100827.41
2018-08-06T15:29:13.169Z,100819.10
2018-08-06T15:31:44.528Z,100813.85
2018-08-06T15:34:16.033Z,100802.87
2018-08-06T15:36:49.079Z,100802.41
2018-08-06T15:41:57.047Z,100792.73
2018-08-06T15:44:27.561Z,100787.39
2018-08-06T15:47:02.161Z,100788.38
2018-08-06T15:49:38.149Z,100784.04
2018-08-06T15:52:14.070Z,100777.52
2018-08-06T15:54:49.445Z,100771.79
2018-08-06T15:57:22.886Z,100773.30
2018-08-06T15:59:55.831Z,100771.07
2018-08-06T16:02:29.152Z,100769.86
2018-08-06T16:05:00.157Z,100770.23
2018-08-06T16:07:30.628Z,100769.08
2018-08-06T16:10:06.501Z,100758.56
2018-08-06T16:12:37.283Z,100761.48
2018-08-06T16:15:19.903Z,100753.34
2018-08-06T16:17:59.642Z,100749.53
2018-08-06T16:20:32.841Z,100750.03
2018-08-06T16:23:03.881Z,100749.66
2018-08-06T16:25:34.468Z,100747.16
2018-08-06T16:28:06.693Z,100747.09
2018-08-06T16:30:38.409Z,100740.61
2018-08-06T16:33:09.600Z,100744.32
2018-08-06T16:35:42.416Z,100736.05
2018-08-06T16:38:16.408Z,100741.15
2018-08-06T16:40:48.649Z,100729.51
2018-08-06T16:43:20.574Z,100728.86
2018-08-06T16:45:51.640Z,100732.17
2018-08-06T16:48:26.637Z,100734.42
2018-08-06T16:53:46.269Z,100729.77
2018-08-06T16:56:18.948Z,100717.16
2018-08-06T16:58:49.679Z,100710.52
2018-08-06T17:01:21.806Z,100711.61
2018-08-06T17:03:53.503Z,100708.31
2018-08-06T17:06:26.403Z,100716.67
2018-08-06T17:09:14.569Z,100713.38
2018-08-06T17:12:03.494Z,100707.05
2018-08-06T17:14:35.348Z,100709.92
2018-08-06T17:17:09.898Z,100711.40
2018-08-06T17:19:47.299Z,100707.10
2018-08-06T17:22:27.611Z,100708.58
2018-08-06T17:25:00.360Z,100711.44
2018-08-06T17:32:59.731Z,100709.70
2018-08-06T17:35:33.054Z,100708.37
2018-08-06T17:38:05.999Z,100710.20
2018-08-06T17:40:39.078Z,100702.48
2018-08-06T17:43:11.268Z,100702.63
2018-08-06T17:45:42.198Z,100702.18
2018-08-06T17:48:16.736Z,100697.94
2018-08-06T17:53:01.813Z,100692.56
2018-08-06T17:55:34.199Z,100694.91
2018-08-06T17:58:07.922Z,100696.85
2018-08-06T18:00:41.778Z,100687.00
2018-08-06T18:03:16.542Z,100693.29
2018-08-06T18:05:51.288Z,100691.31
2018-08-06T18:08:24.922Z,100684.31
2018-08-06T18:10:56.646Z,100691.53
2018-08-06T18:13:36.691Z,100684.04
2018-08-06T18:18:49.664Z,100689.30
2018-08-06T18:21:22.996Z,100689.09
2018-08-06T18:23:55.310Z,100686.14
2018-08-06T18:26:28.406Z,100686.23
2018-08-06T18:29:10.498Z,100685.97
2018-08-06T18:31:41.122Z,100686.42
2018-08-06T18:34:11.807Z,100691.06
2018-08-06T18:36:44.568Z,100695.16
2018-08-06T18:39:14.755Z,100691.50
2018-08-06T18:41:45.250Z,100694.37
2018-08-06T18:44:15.480Z,100696.05
2018-08-06T18:46:52.153Z,100698.20
2018-08-06T18:49:31.944Z,100694.87
2018-08-06T18:52:03.211Z,100699.42
2018-08-06T18:54:36.014Z,100698.66
2018-08-06T18:57:08.464Z,100695.02
2018-08-06T18:59:49.867Z,100698.70
2018-08-06T19:02:21.194Z,100698.55
2018-08-06T19:04:52.734Z,100702.19
2018-08-06T19:07:27.619Z,100701.13
2018-08-06T19:09:59.424Z,100701.72
2018-08-06T19:12:35.612Z,100705.00
2018-08-06T19:15:10.223Z,100701.83
2018-08-06T19:17:49.282Z,100699.66
2018-08-06T19:20:23.435Z,100708.17
2018-08-06T19:22:54.278Z,100716.23
2018-08-06T19:25:30.244Z,100709.19
2018-08-06T19:28:02.825Z,100707.92
2018-08-06T19:30:38.296Z,100710.45
2018-08-06T19:33:10.580Z,100709.41
2018-08-06T19:35:41.958Z,100713.83
2018-08-06T19:38:14.294Z,100712.45
2018-08-06T19:40:44.982Z,100716.83
2018-08-06T19:43:20.275Z,100710.79
2018-08-06T19:45:54.003Z,100716.31
2018-08-06T19:48:25.537Z,100712.47
2018-08-06T19:51:01.414Z,100718.02
2018-08-06T19:53:33.049Z,100713.67
2018-08-06T19:56:09.189Z,100710.66
2018-08-06T19:58:42.622Z,100715.32
2018-08-06T20:01:15.732Z,100713.94
2018-08-06T20:03:49.917Z,100710.63
2018-08-06T20:06:20.910Z,100715.92
2018-08-06T20:08:52.928Z,100716.58
2018-08-06T20:11:25.712Z,100719.37
2018-08-06T20:13:56.969Z,100719.36
2018-08-06T20:16:28.644Z,100708.92
2018-08-06T20:19:03.385Z,100713.08
2018-08-06T20:21:40.485Z,100712.22
2018-08-06T20:24:14.495Z,100716.66
2018-08-06T20:26:45.924Z,100718.59
2018-08-06T20:29:17.869Z,100722.73
2018-08-06T20:31:48.266Z,100711.99
2018-08-06T20:34:20.042Z,100710.59
2018-08-06T20:36:52.608Z,100708.95
2018-08-06T20:39:24.688Z,100708.41
2018-08-06T20:41:55.280Z,100713.62
2018-08-06T20:44:25.753Z,100713.62
2018-08-06T20:46:57.458Z,100711.70
2018-08-06T20:49:27.775Z,100711.16
2018-08-06T20:52:00.386Z,100712.80
2018-08-06T20:54:34.402Z,100711.99
2018-08-06T20:57:05.419Z,100714.44
2018-08-06T20:59:36.579Z,100713.66
2018-08-06T21:02:08.717Z,100716.13
2018-08-06T21:04:44.365Z,100720.20
2018-08-06T21:07:15.064Z,100717.18
2018-08-06T21:09:48.246Z,100720.20
2018-08-06T21:12:19.578Z,100718.81
2018-08-06T21:14:50.256Z,100715.23
2018-08-06T21:17:22.732Z,100718.79
2018-08-06T21:19:57.572Z,100714.11
2018-08-06T21:22:30.615Z,100716.05
2018-08-06T21:25:07.233Z,100712.71
2018-08-06T21:27:41.557Z,100708.53
2018-08-06T21:30:19.749Z,100704.17
2018-08-06T21:32:54.219Z,100711.02
2018-08-06T21:35:27.189Z,100706.84
2018-08-06T21:38:01.829Z,100710.69
2018-08-06T21:40:32.332Z,100709.00
2018-08-06T21:43:02.487Z,100706.77
2018-08-06T21:45:33.013Z,100702.60
2018-08-06T21:48:03.821Z,100702.87
2018-08-06T21:50:34.223Z,100708.28
2018-08-06T21:53:04.456Z,100709.19
2018-08-06T21:55:35.083Z,100707.01
2018-08-06T21:58:05.819Z,100707.22
2018-08-06T22:00:38.331Z,100709.39
2018-08-06T22:03:19.889Z,100711.86
2018-08-06T22:05:55.095Z,100711.80
2018-08-06T22:08:26.331Z,100704.63
2018-08-06T22:11:00.271Z,100701.08
2018-08-06T22:13:31.216Z,100700.27
2018-08-06T22:16:03.342Z,100701.62
2018-08-06T22:18:34.025Z,100702.67
2018-08-06T22:21:05.254Z,100702.65
2018-08-06T22:29:39.662Z,100706.20
2018-08-06T22:32:14.857Z,100698.27
2018-08-06T22:34:46.679Z,100692.83
2018-08-06T22:37:18.480Z,100691.00
2018-08-06T22:39:50.120Z,100686.09
2018-08-06T22:42:20.515Z,100685.68
2018-08-06T22:44:51.432Z,100677.95
2018-08-06T22:47:23.043Z,100674.81
2018-08-06T22:49:55.656Z,100671.23
2018-08-06T22:52:26.723Z,100672.17
2018-08-06T22:54:58.261Z,100676.88
2018-08-06T22:57:29.569Z,100673.09
2018-08-06T23:00:00.929Z,100676.70
2018-08-06T23:02:34.034Z,100672.59
2018-08-06T23:05:05.831Z,100669.34
2018-08-06T23:07:37.321Z,100667.18
2018-08-06T23:10:11.254Z,100663.07
2018-08-06T23:12:42.662Z,100657.50
2018-08-06T23:15:16.918Z,100661.91
2018-08-06T23:17:48.775Z,100653.72
2018-08-06T23:20:19.016Z,100655.13
2018-08-06T23:22:52.007Z,100655.13
2018-08-06T23:25:27.456Z,100643.58
2018-08-06T23:27:58.721Z,100646.61
2018-08-06T23:30:29.601Z,100641.96
2018-08-06T23:32:59.795Z,100649.35
2018-08-06T23:35:29.964Z,100640.58
2018-08-06T23:38:01.255Z,100641.96
2018-08-06T23:40:31.511Z,100637.77
2018-08-06T23:43:01.952Z,100639.51
2018-08-06T23:45:32.426Z,100635.84
2018-08-06T23:48:04.830Z,100636.87
2018-08-06T23:50:35.201Z,100627.73
2018-08-06T23:53:06.536Z,100633.08
2018-08-06T23:55:36.675Z,100633.59
2018-08-06T23:58:07.345Z,100627.89
